Time,TemperatureF,DewpointF,PressureIn,WindDirection,WindDirectionDegrees,WindSpeedMPH,WindSpeedGustMPH,Humidity,HourlyPrecipIn,Conditions,Clouds,dailyrainin,SolarRadiationWatts/m^2,SoftwareType,DateUTC
2013-10-09 00:00:00,66.0,61.4,25.95,SSE,157,0.0,0.0,85,0.00,,,0.00,0,Wunderground v.1.15,2013-10-09 06:00:00,
2013-10-09 00:10:00,66.2,61.6,25.94,NNW,329,0.0,0.0,85,0.00,,,0.00,0,Wunderground v.1.15,2013-10-09 06:10:00,
2013-10-09 00:15:00,66.2,61.6,25.94,NNW,328,0.0,0.0,85,0.00,,,0.00,0,Wunderground v.1.15,2013-10-09 06:15:00,
2013-10-09 00:25:00,66.0,61.7,25.94,NNW,329,0.0,0.0,86,0.00,,,0.00,0,Wunderground v.1.15,2013-10-09 06:25:00,
2013-10-09 00:30:00,65.9,61.6,25.94,NNW,328,0.0,0.0,86,0.00,,,0.00,0,Wunderground v.1.15,2013-10-09 06:30:00,
2013-10-09 00:40:00,65.5,61.2,25.94,NNW,329,0.0,0.0,86,0.00,,,0.00,0,Wunderground v.1.15,2013-10-09 06:40:00,
2013-10-09 00:46:00,65.5,60.5,25.94,SE,140,1.0,1.0,84,0.00,,,0.00,0,Wunderground v.1.15,2013-10-09 06:46:00,
2013-10-09 00:55:00,65.9,60.6,25.94,SE,140,1.0,2.0,83,0.00,,,0.00,0,Wunderground v.1.15,2013-10-09 06:55:00,
2013-10-09 01:00:00,65.9,60.6,25.94,SE,140,0.0,0.0,83,0.00,,,0.00,0,Wunderground v.1.15,2013-10-09 07:00:00,
2013-10-09 01:10:00,66.0,60.3,25.94,SE,140,0.0,0.0,82,0.00,,,0.00,0,Wunderground v.1.15,2013-10-09 07:10:00,
2013-10-09 01:20:00,65.9,60.2,25.93,SE,140,0.0,0.0,82,0.00,,,0.00,0,Wunderground v.1.15,2013-10-09 07:20:00,
2013-10-09 01:25:00,65.9,60.6,25.94,ENE,62,0.0,0.0,83,0.00,,,0.00,0,Wunderground v.1.15,2013-10-09 07:25:00,
2013-10-09 01:30:00,65.7,60.4,25.93,ENE,62,0.0,0.0,83,0.00,,,0.00,0,Wunderground v.1.15,2013-10-09 07:30:00,
2013-10-09 01:40:00,65.5,60.2,25.93,ENE,62,0.0,1.0,83,0.00,,,0.00,0,Wunderground v.1.15,2013-10-09 07:40:00,
2013-10-09 01:45:00,65.4,60.1,25.93,ENE,62,0.0,1.0,83,0.00,,,0.00,0,Wunderground v.1.15,2013-10-09 07:45:00,
2013-10-09 01:55:00,65.2,60.2,25.93,ENE,63,0.0,0.0,84,0.00,,,0.00,0,Wunderground v.1.15,2013-10-09 07:55:00,
2013-10-09 02:00:00,65.4,60.4,25.93,East,81,0.0,1.0,84,0.00,,,0.00,0,Wunderground v.1.15,2013-10-09 08:00:00,
2013-10-09 02:10:00,65.9,60.2,25.92,ENE,69,0.0,0.0,82,0.00,,,0.00,0,Wunderground v.1.15,2013-10-09 08:10:00,
2013-10-09 02:15:00,66.0,60.3,25.92,ENE,69,0.0,0.0,82,0.00,,,0.00,0,Wunderground v.1.15,2013-10-09 08:15:00,
2013-10-09 02:25:00,66.0,60.0,25.92,ENE,69,0.0,0.0,81,0.00,,,0.00,0,Wunderground v.1.15,2013-10-09 08:25:00,
2013-10-09 02:31:00,65.9,60.2,25.92,ENE,69,0.0,0.0,82,0.00,,,0.00,0,Wunderground v.1.15,2013-10-09 08:31:00,
2013-10-09 02:40:00,65.7,60.4,25.92,ENE,69,0.0,0.0,83,0.00,,,0.00,0,Wunderground v.1.15,2013-10-09 08:40:00,
2013-10-09 02:45:00,65.4,60.1,25.92,ENE,69,0.0,0.0,83,0.00,,,0.00,0,Wunderground v.1.15,2013-10-09 08:45:00,
2013-10-09 02:55:00,65.1,60.1,25.92,ENE,69,0.0,0.0,84,0.00,,,0.00,0,Wunderground v.1.15,2013-10-09 08:55:00,
2013-10-09 03:05:00,65.1,60.5,25.92,ENE,69,1.0,1.0,85,0.00,,,0.00,0,Wunderground v.1.15,2013-10-09 09:05:00,
2013-10-09 03:15:00,64.9,60.6,25.92,ENE,69,0.0,1.0,86,0.00,,,0.00,0,Wunderground v.1.15,2013-10-09 09:15:00,
2013-10-09 03:20:00,64.7,60.4,25.92,ENE,69,0.0,0.0,86,0.00,,,0.00,0,Wunderground v.1.15,2013-10-09 09:20:00,
2013-10-09 03:30:00,64.4,60.1,25.92,ENE,69,0.0,0.0,86,0.00,,,0.00,0,Wunderground v.1.15,2013-10-09 09:30:00,
2013-10-09 03:40:00,64.1,60.5,25.93,ENE,69,0.0,0.0,88,0.00,,,0.00,0,Wunderground v.1.15,2013-10-09 09:40:00,
2013-10-09 03:50:00,64.1,60.5,25.92,ENE,69,0.0,0.0,88,0.00,,,0.00,0,Wunderground v.1.15,2013-10-09 09:50:00,
2013-10-09 03:55:00,64.1,60.5,25.92,ENE,69,0.0,0.0,88,0.00,,,0.00,0,Wunderground v.1.15,2013-10-09 09:55:00,
2013-10-09 04:05:00,64.2,60.2,25.93,ENE,69,0.0,2.0,87,0.00,,,0.00,0,Wunderground v.1.15,2013-10-09 10:05:00,
2013-10-09 04:10:00,64.6,60.3,25.93,ENE,78,1.0,1.0,86,0.00,,,0.00,0,Wunderground v.1.15,2013-10-09 10:10:00,
2013-10-09 04:20:00,65.1,60.1,25.93,ESE,123,1.0,1.0,84,0.00,,,0.00,0,Wunderground v.1.15,2013-10-09 10:20:00,
2013-10-09 04:25:00,65.1,59.8,25.93,ESE,123,0.0,2.0,83,0.00,,,0.00,0,Wunderground v.1.15,2013-10-09 10:25:00,
2013-10-09 04:35:00,64.9,59.6,25.94,ENE,57,1.0,1.0,83,0.00,,,0.00,0,Wunderground v.1.15,2013-10-09 10:35:00,
2013-10-09 04:40:00,64.9,59.6,25.94,ENE,57,1.0,1.0,83,0.00,,,0.00,0,Wunderground v.1.15,2013-10-09 10:40:00,
2013-10-09 04:45:00,64.7,59.4,25.94,ENE,57,0.0,1.0,83,0.00,,,0.00,0,Wunderground v.1.15,2013-10-09 10:45:00,
2013-10-09 04:50:00,64.6,59.3,25.94,ENE,57,0.0,1.0,83,0.00,,,0.00,0,Wunderground v.1.15,2013-10-09 10:50:00,
2013-10-09 05:00:00,64.4,59.1,25.94,East,99,0.0,0.0,83,0.00,,,0.00,0,Wunderground v.1.15,2013-10-09 11:00:00,
2013-10-09 05:05:00,64.6,59.3,25.94,East,99,0.0,0.0,83,0.00,,,0.00,0,Wunderground v.1.15,2013-10-09 11:05:00,
2013-10-09 05:10:00,64.6,59.3,25.95,East,88,0.0,0.0,83,0.00,,,0.00,0,Wunderground v.1.15,2013-10-09 11:10:00,
2013-10-09 05:15:00,64.7,59.4,25.95,ESE,123,1.0,2.0,83,0.00,,,0.00,0,Wunderground v.1.15,2013-10-09 11:15:00,
2013-10-09 05:25:00,65.1,59.5,25.95,ENE,65,1.0,2.0,82,0.00,,,0.00,0,Wunderground v.1.15,2013-10-09 11:25:00,
2013-10-09 05:30:00,65.2,59.6,25.95,SE,135,1.0,1.0,82,0.00,,,0.00,5,Wunderground v.1.15,2013-10-09 11:30:00,
2013-10-09 05:40:00,65.2,59.2,25.95,East,84,0.0,1.0,81,0.00,,,0.00,16,Wunderground v.1.15,2013-10-09 11:40:00,
2013-10-09 05:45:00,65.2,59.6,25.95,SE,139,0.0,1.0,82,0.00,,,0.00,25,Wunderground v.1.15,2013-10-09 11:45:00,
2013-10-09 05:55:00,65.4,59.8,25.95,SE,139,1.0,1.0,82,0.00,,,0.00,25,Wunderground v.1.15,2013-10-09 11:55:00,
2013-10-09 06:00:00,65.4,59.8,25.95,NE,34,0.0,0.0,82,0.00,,,0.00,28,Wunderground v.1.15,2013-10-09 12:00:00,
2013-10-09 06:10:00,65.4,59.4,25.95,NE,34,0.0,0.0,81,0.00,,,0.00,44,Wunderground v.1.15,2013-10-09 12:10:00,
2013-10-09 06:15:00,65.5,59.5,25.95,NE,40,0.0,1.0,81,0.00,,,0.00,58,Wunderground v.1.15,2013-10-09 12:15:00,
2013-10-09 06:25:00,66.0,60.0,25.95,ESE,114,1.0,1.0,81,0.00,,,0.00,121,Wunderground v.1.15,2013-10-09 12:25:00,
2013-10-09 06:30:00,66.3,59.6,25.96,East,80,0.0,2.0,79,0.00,,,0.00,130,Wunderground v.1.15,2013-10-09 12:30:00,
2013-10-09 06:40:00,67.0,59.5,25.96,NNW,340,1.0,1.0,77,0.00,,,0.00,197,Wunderground v.1.15,2013-10-09 12:40:00,
2013-10-09 06:45:00,67.5,60.0,25.96,ESE,113,1.0,2.0,77,0.00,,,0.00,225,Wunderground v.1.15,2013-10-09 12:45:00,
2013-10-09 06:55:00,68.2,60.0,25.96,North,11,1.0,2.0,75,0.00,,,0.00,83,Wunderground v.1.15,2013-10-09 12:55:00,
2013-10-09 07:00:00,68.2,60.3,25.96,NNW,343,1.0,1.0,76,0.00,,,0.00,172,Wunderground v.1.15,2013-10-09 13:00:00,
2013-10-09 07:10:00,68.5,59.1,25.96,NNE,17,1.0,1.0,72,0.00,,,0.00,232,Wunderground v.1.15,2013-10-09 13:10:00,
2013-10-09 07:15:00,68.8,59.4,25.97,NNE,17,1.0,1.0,72,0.00,,,0.00,120,Wunderground v.1.15,2013-10-09 13:15:00,
2013-10-09 07:25:00,68.8,60.2,25.97,NNW,339,1.0,1.0,74,0.00,,,0.00,141,Wunderground v.1.15,2013-10-09 13:25:00,
2013-10-09 07:30:00,68.7,60.5,25.97,NNE,15,2.0,2.0,75,0.00,,,0.00,156,Wunderground v.1.15,2013-10-09 13:30:00,
2013-10-09 07:40:00,68.8,60.6,25.97,NNE,17,2.0,3.0,75,0.00,,,0.00,469,Wunderground v.1.15,2013-10-09 13:40:00,
2013-10-09 07:45:00,69.3,60.7,25.97,ENE,60,2.0,3.0,74,0.00,,,0.00,413,Wunderground v.1.15,2013-10-09 13:45:00,
2013-10-09 07:55:00,69.7,60.7,25.97,WNW,291,2.0,3.0,73,0.00,,,0.00,459,Wunderground v.1.15,2013-10-09 13:55:00,
2013-10-09 08:00:00,70.0,60.9,25.97,ESE,105,2.0,2.0,73,0.00,,,0.00,517,Wunderground v.1.15,2013-10-09 14:00:00,
2013-10-09 08:10:00,70.7,61.2,25.97,East,96,2.0,4.0,72,0.00,,,0.00,455,Wunderground v.1.15,2013-10-09 14:10:00,
2013-10-09 08:15:00,71.2,61.7,25.97,NNE,31,2.0,4.0,72,0.00,,,0.00,571,Wunderground v.1.15,2013-10-09 14:15:00,
2013-10-09 08:20:00,71.7,61.4,25.97,ESE,102,2.0,6.0,70,0.00,,,0.00,577,Wunderground v.1.15,2013-10-09 14:20:00,
2013-10-09 08:30:00,72.7,61.1,25.97,NNW,328,3.0,3.0,67,0.00,,,0.00,591,Wunderground v.1.15,2013-10-09 14:30:00,
2013-10-09 08:35:00,72.9,61.3,25.97,NNW,327,2.0,3.0,67,0.00,,,0.00,606,Wunderground v.1.15,2013-10-09 14:35:00,
2013-10-09 08:40:00,73.4,61.8,25.97,NW,322,3.0,5.0,67,0.00,,,0.00,626,Wunderground v.1.15,2013-10-09 14:40:00,
2013-10-09 08:45:00,73.4,61.3,25.97,WNW,288,3.0,5.0,66,0.00,,,0.00,643,Wunderground v.1.15,2013-10-09 14:45:00,
2013-10-09 08:55:00,73.6,62.0,25.97,NE,51,4.0,6.0,67,0.00,,,0.00,721,Wunderground v.1.15,2013-10-09 14:55:00,
2013-10-09 09:00:00,73.8,62.2,25.98,ESE,121,4.0,4.0,67,0.00,,,0.00,237,Wunderground v.1.15,2013-10-09 15:00:00,
2013-10-09 09:05:00,73.4,61.8,25.98,NNW,344,3.0,4.0,67,0.00,,,0.00,239,Wunderground v.1.15,2013-10-09 15:05:00,
2013-10-09 09:15:00,72.4,61.7,25.98,NNE,27,4.0,6.0,69,0.00,,,0.00,308,Wunderground v.1.15,2013-10-09 15:15:00,
2013-10-09 09:25:00,72.7,61.9,25.97,North,5,4.0,8.0,69,0.00,,,0.00,213,Wunderground v.1.15,2013-10-09 15:25:00,
2013-10-09 09:30:00,72.4,61.7,25.97,WSW,243,5.0,5.0,69,0.00,,,0.00,346,Wunderground v.1.15,2013-10-09 15:30:00,
2013-10-09 09:40:00,73.2,61.6,25.97,NE,40,5.0,10.0,67,0.00,,,0.00,306,Wunderground v.1.15,2013-10-09 15:40:00,
2013-10-09 09:45:00,73.1,61.9,25.97,West,279,5.0,10.0,68,0.00,,,0.00,362,Wunderground v.1.15,2013-10-09 15:45:00,
2013-10-09 09:55:00,73.9,62.2,25.97,NNW,338,4.0,5.0,67,0.00,,,0.00,292,Wunderground v.1.15,2013-10-09 15:55:00,
2013-10-09 10:00:00,73.8,62.6,25.96,NNE,20,4.0,5.0,68,0.00,,,0.00,325,Wunderground v.1.15,2013-10-09 16:00:00,
2013-10-09 10:10:00,73.4,62.2,25.96,North,350,5.0,5.0,68,0.00,,,0.00,308,Wunderground v.1.15,2013-10-09 16:10:00,
2013-10-09 10:15:00,73.4,62.2,25.96,North,355,4.0,11.0,68,0.00,,,0.00,327,Wunderground v.1.15,2013-10-09 16:15:00,
2013-10-09 10:25:00,73.2,62.0,25.95,NNE,16,4.0,9.0,68,0.00,,,0.00,251,Wunderground v.1.15,2013-10-09 16:25:00,
2013-10-09 10:30:00,73.4,62.2,25.95,NE,52,4.0,4.0,68,0.00,,,0.00,311,Wunderground v.1.15,2013-10-09 16:30:00,
2013-10-09 10:40:00,73.8,62.2,25.95,NNW,339,4.0,4.0,67,0.00,,,0.00,399,Wunderground v.1.15,2013-10-09 16:40:00,
2013-10-09 10:45:00,73.8,62.6,25.95,North,11,4.0,4.0,68,0.00,,,0.00,288,Wunderground v.1.15,2013-10-09 16:45:00,
2013-10-09 10:55:00,74.1,62.4,25.95,South,170,5.0,9.0,67,0.00,,,0.00,367,Wunderground v.1.15,2013-10-09 16:55:00,
2013-10-09 11:10:00,75.0,62.9,25.95,SSE,156,4.0,4.0,66,0.00,,,0.00,432,Wunderground v.1.15,2013-10-09 17:10:00,
2013-10-09 11:15:00,75.9,62.4,25.94,West,271,4.0,4.0,63,0.00,,,0.00,1088,Wunderground v.1.15,2013-10-09 17:15:00,
2013-10-09 11:25:00,76.2,62.7,25.94,SSW,213,6.0,8.0,63,0.00,,,0.00,1000,Wunderground v.1.15,2013-10-09 17:25:00,
2013-10-09 11:30:00,76.6,62.1,25.94,East,86,4.0,4.0,61,0.00,,,0.00,965,Wunderground v.1.15,2013-10-09 17:30:00,
2013-10-09 11:40:00,77.1,62.1,25.93,North,360,5.0,5.0,60,0.00,,,0.00,1027,Wunderground v.1.15,2013-10-09 17:40:00,
2013-10-09 11:46:00,76.9,62.0,25.93,North,355,5.0,5.0,60,0.00,,,0.00,1027,Wunderground v.1.15,2013-10-09 17:46:00,
2013-10-09 11:55:00,76.4,62.4,25.93,West,259,5.0,5.0,62,0.00,,,0.00,325,Wunderground v.1.15,2013-10-09 17:55:00,
2013-10-09 12:00:00,76.0,62.5,25.93,NW,309,5.0,5.0,63,0.00,,,0.00,863,Wunderground v.1.15,2013-10-09 18:00:00,
2013-10-09 12:05:00,76.0,62.9,25.92,NE,46,5.0,5.0,64,0.00,,,0.00,960,Wunderground v.1.15,2013-10-09 18:05:00,
2013-10-09 12:15:00,75.3,62.7,25.92,NNE,22,5.0,7.0,65,0.00,,,0.00,831,Wunderground v.1.15,2013-10-09 18:15:00,
2013-10-09 12:25:00,74.8,63.1,25.92,North,355,6.0,7.0,67,0.00,,,0.00,930,Wunderground v.1.15,2013-10-09 18:25:00,
2013-10-09 12:30:00,74.6,63.3,25.91,SSE,152,6.0,7.0,68,0.00,,,0.00,309,Wunderground v.1.15,2013-10-09 18:30:00,
2013-10-09 12:40:00,74.3,63.1,25.91,NE,51,6.0,13.0,68,0.00,,,0.00,1002,Wunderground v.1.15,2013-10-09 18:40:00,
2013-10-09 12:45:00,74.3,62.6,25.91,WNW,298,7.0,13.0,67,0.00,,,0.00,909,Wunderground v.1.15,2013-10-09 18:45:00,
2013-10-09 12:55:00,75.3,62.3,25.90,North,5,6.0,14.0,64,0.00,,,0.00,837,Wunderground v.1.15,2013-10-09 18:55:00,
2013-10-09 13:00:00,75.3,61.8,25.90,NNW,344,7.0,7.0,63,0.00,,,0.00,902,Wunderground v.1.15,2013-10-09 19:00:00,
2013-10-09 13:10:00,76.0,62.9,25.89,NNE,22,6.0,6.0,64,0.00,,,0.00,780,Wunderground v.1.15,2013-10-09 19:10:00,
2013-10-09 13:15:00,76.4,62.4,25.89,NE,39,5.0,6.0,62,0.00,,,0.00,817,Wunderground v.1.15,2013-10-09 19:15:00,
2013-10-09 13:20:00,76.6,62.1,25.89,ESE,103,6.0,16.0,61,0.00,,,0.00,812,Wunderground v.1.15,2013-10-09 19:20:00,
2013-10-09 13:25:00,77.1,62.6,25.89,NE,38,5.0,16.0,61,0.00,,,0.00,851,Wunderground v.1.15,2013-10-09 19:25:00,
2013-10-09 13:30:00,77.1,63.1,25.89,North,5,6.0,7.0,62,0.00,,,0.00,851,Wunderground v.1.15,2013-10-09 19:30:00,
2013-10-09 13:35:00,76.6,63.1,25.88,WNW,302,6.0,13.0,63,0.00,,,0.00,846,Wunderground v.1.15,2013-10-09 19:35:00,
2013-10-09 13:40:00,76.4,62.9,25.89,NE,53,6.0,6.0,63,0.00,,,0.00,800,Wunderground v.1.15,2013-10-09 19:40:00,
2013-10-09 13:45:00,76.4,62.4,25.89,North,5,6.0,6.0,62,0.00,,,0.00,761,Wunderground v.1.15,2013-10-09 19:45:00,
2013-10-09 13:55:00,74.8,63.1,25.89,ESE,107,6.0,7.0,67,0.00,,,0.00,169,Wunderground v.1.15,2013-10-09 19:55:00,
2013-10-09 14:00:00,74.1,63.3,25.88,NNW,337,4.0,6.0,69,0.00,,,0.00,190,Wunderground v.1.15,2013-10-09 20:00:00,
2013-10-09 14:10:00,73.6,63.6,25.88,WNW,301,5.0,5.0,71,0.00,,,0.00,123,Wunderground v.1.15,2013-10-09 20:10:00,
2013-10-09 14:15:00,73.2,63.2,25.88,NNW,331,4.0,7.0,71,0.00,,,0.00,158,Wunderground v.1.15,2013-10-09 20:15:00,
2013-10-09 14:25:00,73.4,63.8,25.89,WNW,283,5.0,5.0,72,0.00,,,0.00,153,Wunderground v.1.15,2013-10-09 20:25:00,
2013-10-09 14:30:00,73.2,62.8,25.89,West,275,5.0,5.0,70,0.00,,,0.00,162,Wunderground v.1.15,2013-10-09 20:30:00,
2013-10-09 14:40:00,73.6,62.4,25.88,NW,323,4.0,4.0,68,0.00,,,0.00,156,Wunderground v.1.15,2013-10-09 20:40:00,
2013-10-09 14:45:00,73.6,63.2,25.88,North,5,4.0,4.0,70,0.00,,,0.00,160,Wunderground v.1.15,2013-10-09 20:45:00,
2013-10-09 14:55:00,73.6,63.2,25.88,NW,320,4.0,6.0,70,0.00,,,0.00,123,Wunderground v.1.15,2013-10-09 20:55:00,
2013-10-09 15:00:00,73.4,63.4,25.89,SE,142,3.0,3.0,71,0.00,,,0.00,111,Wunderground v.1.15,2013-10-09 21:00:00,
2013-10-09 15:10:00,72.4,63.3,25.89,NE,40,4.0,4.0,73,0.00,,,0.00,74,Wunderground v.1.15,2013-10-09 21:10:00,
2013-10-09 15:15:00,72.4,63.3,25.89,ESE,111,4.0,6.0,73,0.00,,,0.00,76,Wunderground v.1.15,2013-10-09 21:15:00,
2013-10-09 15:25:00,72.9,61.7,25.88,SE,134,2.0,3.0,68,0.00,,,0.00,76,Wunderground v.1.15,2013-10-09 21:25:00,
2013-10-09 15:30:00,73.4,61.8,25.88,SE,130,2.0,2.0,67,0.00,,,0.00,76,Wunderground v.1.15,2013-10-09 21:30:00,
2013-10-09 15:40:00,73.9,62.7,25.89,SSW,197,1.0,1.0,68,0.00,,,0.00,42,Wunderground v.1.15,2013-10-09 21:40:00,
2013-10-09 15:46:00,73.9,62.7,25.89,SSE,154,2.0,2.0,68,0.00,,,0.00,53,Wunderground v.1.15,2013-10-09 21:46:00,
2013-10-09 15:55:00,73.4,62.6,25.90,ENE,65,2.0,2.0,69,0.00,,,0.00,25,Wunderground v.1.15,2013-10-09 21:55:00,
2013-10-09 16:01:00,73.1,62.7,25.90,North,355,2.0,2.0,70,0.00,,,0.00,33,Wunderground v.1.15,2013-10-09 22:01:00,
2013-10-09 16:10:00,72.4,62.9,25.91,East,82,2.0,2.0,72,0.00,,,0.00,30,Wunderground v.1.15,2013-10-09 22:10:00,
2013-10-09 16:20:00,72.6,62.3,25.91,SSE,149,1.0,1.0,70,0.00,,,0.00,26,Wunderground v.1.15,2013-10-09 22:20:00,
2013-10-09 16:30:00,72.7,62.3,25.90,SSE,159,2.0,4.0,70,0.00,,,0.00,40,Wunderground v.1.15,2013-10-09 22:30:00,
2013-10-09 16:35:00,72.7,62.3,25.91,SSE,159,3.0,4.0,70,0.00,,,0.00,33,Wunderground v.1.15,2013-10-09 22:35:00,
2013-10-09 16:45:00,72.2,61.9,25.91,North,5,0.0,2.0,70,0.00,,,0.00,16,Wunderground v.1.15,2013-10-09 22:45:00,
2013-10-09 16:50:00,72.2,62.3,25.91,North,5,0.0,0.0,71,0.00,,,0.00,11,Wunderground v.1.15,2013-10-09 22:50:00,
2013-10-09 17:00:00,72.2,62.3,25.91,North,5,0.0,0.0,71,0.00,,,0.00,5,Wunderground v.1.15,2013-10-09 23:00:00,
2013-10-09 17:10:00,71.7,63.0,25.91,ESE,117,1.0,1.0,74,0.00,,,0.00,0,Wunderground v.1.15,2013-10-09 23:10:00,
2013-10-09 17:15:00,71.2,62.9,25.92,East,98,2.0,2.0,75,0.00,,,0.00,0,Wunderground v.1.15,2013-10-09 23:15:00,
2013-10-09 17:20:00,70.8,62.9,25.92,East,95,1.0,1.0,76,0.00,,,0.00,0,Wunderground v.1.15,2013-10-09 23:20:00,
2013-10-09 17:30:00,70.7,62.8,25.92,SE,135,1.0,1.0,76,0.00,,,0.00,0,Wunderground v.1.15,2013-10-09 23:30:00,
2013-10-09 17:40:00,70.3,62.7,25.92,SE,130,1.0,1.0,77,0.00,,,0.00,0,Wunderground v.1.15,2013-10-09 23:40:00,
2013-10-09 17:45:00,70.0,62.5,25.92,NNW,347,2.0,2.0,77,0.00,,,0.00,0,Wunderground v.1.15,2013-10-09 23:45:00,
2013-10-09 17:55:00,69.7,62.5,25.92,North,11,2.0,4.0,78,0.00,,,0.00,0,Wunderground v.1.15,2013-10-09 23:55:00,
2013-10-09 18:00:00,69.5,62.7,25.92,ENE,72,2.0,2.0,79,0.00,,,0.00,0,Wunderground v.1.15,2013-10-10 00:00:00,
2013-10-09 18:10:00,69.3,62.5,25.94,NW,318,1.0,1.0,79,0.00,,,0.00,0,Wunderground v.1.15,2013-10-10 00:10:00,
2013-10-09 18:15:00,69.3,62.5,25.94,ENE,62,0.0,1.0,79,0.00,,,0.00,0,Wunderground v.1.15,2013-10-10 00:15:00,
2013-10-09 18:25:00,69.3,62.9,25.94,ENE,62,0.0,0.0,80,0.00,,,0.00,0,Wunderground v.1.15,2013-10-10 00:25:00,
2013-10-09 18:30:00,69.2,62.8,25.95,NE,43,1.0,3.0,80,0.00,,,0.00,0,Wunderground v.1.15,2013-10-10 00:30:00,
2013-10-09 18:40:00,69.3,62.1,25.95,SE,128,1.0,1.0,78,0.00,,,0.00,0,Wunderground v.1.15,2013-10-10 00:40:00,
2013-10-09 18:45:00,69.3,61.4,25.95,NNE,21,1.0,1.0,76,0.00,,,0.00,0,Wunderground v.1.15,2013-10-10 00:45:00,
2013-10-09 18:55:00,69.3,61.4,25.95,NW,319,2.0,3.0,76,0.00,,,0.00,0,Wunderground v.1.15,2013-10-10 00:55:00,
2013-10-09 19:00:00,69.2,61.3,25.95,NW,321,2.0,2.0,76,0.00,,,0.00,0,Wunderground v.1.15,2013-10-10 01:00:00,
2013-10-09 19:10:00,69.2,61.3,25.96,NNW,335,0.0,0.0,76,0.00,,,0.00,0,Wunderground v.1.15,2013-10-10 01:10:00,
2013-10-09 19:16:00,69.2,61.7,25.96,NNW,335,0.0,0.0,77,0.00,,,0.00,0,Wunderground v.1.15,2013-10-10 01:16:00,
2013-10-09 19:25:00,69.2,62.0,25.97,NNW,335,0.0,0.0,78,0.00,,,0.00,0,Wunderground v.1.15,2013-10-10 01:25:00,
2013-10-09 19:35:00,69.2,62.0,25.97,NW,321,1.0,1.0,78,0.00,,,0.00,0,Wunderground v.1.15,2013-10-10 01:35:00,
2013-10-09 19:45:00,69.0,61.9,25.97,WNW,289,0.0,1.0,78,0.00,,,0.00,0,Wunderground v.1.15,2013-10-10 01:45:00,
2013-10-09 19:55:00,68.7,61.9,25.97,NNW,333,1.0,1.0,79,0.00,,,0.00,0,Wunderground v.1.15,2013-10-10 01:55:00,
2013-10-09 20:05:00,68.5,62.1,25.97,North,11,0.0,1.0,80,0.00,,,0.00,0,Wunderground v.1.15,2013-10-10 02:05:00,
2013-10-09 20:10:00,68.5,61.7,25.97,WNW,282,0.0,0.0,79,0.00,,,0.00,0,Wunderground v.1.15,2013-10-10 02:10:00,
2013-10-09 20:15:00,68.5,61.4,25.97,NE,46,0.0,3.0,78,0.00,,,0.00,0,Wunderground v.1.15,2013-10-10 02:15:00,
2013-10-09 20:20:00,68.5,61.0,25.97,NNE,17,1.0,1.0,77,0.00,,,0.00,0,Wunderground v.1.15,2013-10-10 02:20:00,
2013-10-09 20:25:00,68.7,61.6,25.97,NNE,17,0.0,1.0,78,0.00,,,0.00,0,Wunderground v.1.15,2013-10-10 02:25:00,
2013-10-09 20:30:00,68.7,61.6,25.97,SW,232,0.0,0.0,78,0.00,,,0.00,0,Wunderground v.1.15,2013-10-10 02:30:00,
2013-10-09 20:40:00,68.5,61.4,25.98,North,355,1.0,2.0,78,0.00,,,0.00,0,Wunderground v.1.15,2013-10-10 02:40:00,
2013-10-09 20:45:00,68.3,61.5,25.98,ENE,63,1.0,4.0,79,0.00,,,0.00,0,Wunderground v.1.15,2013-10-10 02:45:00,
2013-10-09 20:55:00,68.0,61.2,25.97,NE,38,1.0,2.0,79,0.00,,,0.00,0,Wunderground v.1.15,2013-10-10 02:55:00,
2013-10-09 21:00:00,67.8,61.4,25.97,WNW,300,1.0,3.0,80,0.00,,,0.00,0,Wunderground v.1.15,2013-10-10 03:00:00,
2013-10-09 21:10:00,67.5,61.1,25.97,WNW,301,0.0,0.0,80,0.00,,,0.00,0,Wunderground v.1.15,2013-10-10 03:10:00,
2013-10-09 21:16:00,67.5,61.5,25.97,WNW,301,0.0,0.0,81,0.00,,,0.00,0,Wunderground v.1.15,2013-10-10 03:16:00,
2013-10-09 21:25:00,67.3,61.3,25.97,WNW,301,0.0,0.0,81,0.00,,,0.00,0,Wunderground v.1.15,2013-10-10 03:25:00,
2013-10-09 21:30:00,67.3,61.3,25.97,WNW,301,0.0,0.0,81,0.00,,,0.00,0,Wunderground v.1.15,2013-10-10 03:30:00,
2013-10-09 21:35:00,67.3,61.3,25.97,WNW,301,0.0,0.0,81,0.00,,,0.00,0,Wunderground v.1.15,2013-10-10 03:35:00,
2013-10-09 21:40:00,67.3,61.6,25.97,WNW,301,0.0,0.0,82,0.00,,,0.00,0,Wunderground v.1.15,2013-10-10 03:40:00,
2013-10-09 21:46:00,67.2,61.5,25.97,WNW,301,0.0,0.0,82,0.00,,,0.00,0,Wunderground v.1.15,2013-10-10 03:46:00,
2013-10-09 21:55:00,67.0,61.0,25.97,WNW,301,0.0,0.0,81,0.00,,,0.00,0,Wunderground v.1.15,2013-10-10 03:55:00,
2013-10-09 22:05:00,66.8,60.8,25.97,East,101,0.0,0.0,81,0.00,,,0.00,0,Wunderground v.1.15,2013-10-10 04:05:00,
2013-10-09 22:10:00,66.8,60.8,25.97,East,101,0.0,0.0,81,0.00,,,0.00,0,Wunderground v.1.15,2013-10-10 04:10:00,
2013-10-09 22:15:00,66.7,60.7,25.97,East,101,0.0,0.0,81,0.00,,,0.00,0,Wunderground v.1.15,2013-10-10 04:15:00,
2013-10-09 22:20:00,66.7,60.7,25.97,East,101,0.0,0.0,81,0.00,,,0.00,0,Wunderground v.1.15,2013-10-10 04:20:00,
2013-10-09 22:25:00,66.7,60.7,25.97,East,101,0.0,0.0,81,0.00,,,0.00,0,Wunderground v.1.15,2013-10-10 04:25:00,
2013-10-09 22:30:00,66.7,61.0,25.96,East,101,0.0,0.0,82,0.00,,,0.00,0,Wunderground v.1.15,2013-10-10 04:30:00,
2013-10-09 22:35:00,66.7,61.0,25.96,East,101,0.0,0.0,82,0.00,,,0.00,0,Wunderground v.1.15,2013-10-10 04:35:00,
2013-10-09 22:40:00,66.5,60.8,25.96,East,101,0.0,0.0,82,0.00,,,0.00,0,Wunderground v.1.15,2013-10-10 04:40:00,
2013-10-09 22:45:00,66.5,60.8,25.96,East,101,0.0,1.0,82,0.00,,,0.00,0,Wunderground v.1.15,2013-10-10 04:45:00,
2013-10-09 22:50:00,66.3,61.0,25.96,West,279,0.0,0.0,83,0.00,,,0.00,0,Wunderground v.1.15,2013-10-10 04:50:00,
2013-10-09 22:55:00,66.3,60.6,25.96,West,279,0.0,0.0,82,0.00,,,0.00,0,Wunderground v.1.15,2013-10-10 04:55:00,
2013-10-09 23:00:00,66.3,61.0,25.96,SE,144,0.0,0.0,83,0.00,,,0.00,0,Wunderground v.1.15,2013-10-10 05:00:00,
2013-10-09 23:10:00,66.3,60.6,25.95,SE,144,0.0,0.0,82,0.00,,,0.00,0,Wunderground v.1.15,2013-10-10 05:10:00,
2013-10-09 23:15:00,66.2,60.9,25.94,SE,144,0.0,0.0,83,0.00,,,0.00,0,Wunderground v.1.15,2013-10-10 05:15:00,
2013-10-09 23:20:00,66.0,60.7,25.94,SE,144,0.0,0.0,83,0.00,,,0.00,0,Wunderground v.1.15,2013-10-10 05:20:00,
2013-10-09 23:30:00,65.4,60.8,25.94,ESE,107,0.0,1.0,85,0.00,,,0.00,0,Wunderground v.1.15,2013-10-10 05:30:00,
2013-10-09 23:40:00,64.9,60.3,25.94,ESE,107,1.0,1.0,85,0.00,,,0.00,0,Wunderground v.1.15,2013-10-10 05:40:00,
2013-10-09 23:45:00,64.7,60.1,25.94,ESE,107,0.0,1.0,85,0.00,,,0.00,0,Wunderground v.1.15,2013-10-10 05:45:00,
2013-10-09 23:55:00,64.6,60.3,25.94,ESE,107,0.0,0.0,86,0.00,,,0.00,0,Wunderground v.1.15,2013-10-10 05:55:00,